Lakewood Harbor, Texas
Current Conditions -  °F | °C
As of 2:51 PM on Saturday 25 Oct 2014 (Local Time) from KACT Reporting Station
Clear Clear  
Wind Chill: 86°   Ceiling: Unl
Heat Index: 86°   Visibility: 10mi
Dew Point: 61°   Wind: 6mph
Humidity: 43%   Direction: 150°SSE
Pressure: 30.09"   Gusts: NA
Location:  31.7854°N, 97.5786°W
Report Text: KACT 251951Z 15005KT 10SM CLR 30/16 A3009 RMK AO2 SLP183 T03000161
Loading
Personal Weather Stations






























Interactive Weather Map
Tropical Storm Tracking
New forecast layout! Learn more

10-Day Weather Forecast

Advertisements
Track Severe Weather on mobile